Time;durP1;ratioP1;P1;durP2;ratioP2;P2;SDS_P1;SDS_P2;PMS_P1;PMS_P2;Temp;Humidity;BMP_temperature;BMP_pressure;BME280_temperature;BME280_humidity;BME280_pressure;Samples;Min_cycle;Max_cycle;Signal;HPM_P1;HPM_P2
2021/03/29 00:00:01;;;;;;;47.67;24.80;;;;;;;2.65;50.96;100370.09;114872;1199;103147;-74
2021/03/29 00:02:29;;;;;;;49.37;25.07;;;;;;;2.66;50.85;100368.35;114984;1198;103595;-74
2021/03/29 00:04:56;;;;;;;44.85;24.00;;;;;;;2.66;50.71;100366.58;114961;1200;103140;-75
2021/03/29 00:07:28;;;;;;;54.10;27.87;;;;;;;2.70;51.25;100366.52;114932;1200;103038;-76
2021/03/29 00:09:55;;;;;;;45.93;25.97;;;;;;;2.71;51.56;100368.25;115051;1200;103131;-74
2021/03/29 00:12:26;;;;;;;52.77;26.73;;;;;;;2.75;51.40;100373.44;115280;1199;103094;-76
2021/03/29 00:14:53;;;;;;;52.60;25.87;;;;;;;2.74;51.27;100363.82;114958;1199;103089;-77
2021/03/29 00:17:21;;;;;;;41.00;22.70;;;;;;;2.76;50.91;100369.03;114923;1199;103210;-76
2021/03/29 00:19:55;;;;;;;41.17;21.57;;;;;;;2.77;51.36;100362.88;114957;1200;104691;-75
2021/03/29 00:22:24;;;;;;;47.57;24.33;;;;;;;2.80;51.42;100365.45;116560;1198;101092;-75
2021/03/29 00:24:53;;;;;;;44.77;23.33;;;;;;;2.85;51.01;100365.38;114935;1199;103241;-75
2021/03/29 00:27:20;;;;;;;42.57;23.13;;;;;;;2.86;50.84;100364.45;114944;1200;103162;-75
2021/03/29 00:29:47;;;;;;;50.40;26.00;;;;;;;2.70;50.99;100366.52;114951;1199;103301;-75
2021/03/29 00:32:19;;;;;;;49.57;24.83;;;;;;;2.60;51.69;100363.21;115002;1199;103034;-75
2021/03/29 00:34:50;;;;;;;45.45;23.45;;;;;;;2.54;51.43;100366.83;114988;1200;103235;-76
2021/03/29 00:37:18;;;;;;;52.20;26.50;;;;;;;2.49;51.21;100364.27;114970;1200;103034;-75
2021/03/29 00:39:50;;;;;;;50.57;28.00;;;;;;;2.35;50.81;100359.27;114957;1199;103076;-75
2021/03/29 00:42:20;;;;;;;55.80;27.53;;;;;;;2.23;50.95;100359.52;114912;1199;103181;-74
2021/03/29 00:44:47;;;;;;;49.53;26.47;;;;;;;2.18;51.53;100356.10;114958;1199;103140;-75
2021/03/29 00:47:15;;;;;;;53.00;29.17;;;;;;;2.13;51.52;100353.54;114940;1199;103131;-75
2021/03/29 00:49:42;;;;;;;52.85;28.58;;;;;;;2.12;51.29;100364.08;114944;1200;103175;-76
2021/03/29 00:52:13;;;;;;;47.87;27.03;;;;;;;2.06;51.71;100367.66;114968;1199;103040;-75
2021/03/29 00:54:42;;;;;;;55.53;30.83;;;;;;;1.99;51.29;100371.30;114921;1199;103050;-75
2021/03/29 00:57:18;;;;;;;49.47;26.53;;;;;;;1.92;51.73;100366.14;115429;1199;103255;-75
2021/03/29 00:59:46;;;;;;;48.93;26.77;;;;;;;1.90;51.85;100365.30;115602;1199;103066;-74
2021/03/29 01:02:14;;;;;;;50.53;24.47;;;;;;;1.91;51.52;100367.03;115305;1200;103118;-75
2021/03/29 01:04:41;;;;;;;50.40;26.30;;;;;;;1.85;51.39;100363.63;115864;1199;103063;-76
2021/03/29 01:07:08;;;;;;;51.50;26.25;;;;;;;1.84;51.96;100367.14;114898;1199;103229;-75
2021/03/29 01:09:40;;;;;;;48.05;25.80;;;;;;;1.86;51.97;100367.98;114959;1200;103034;-76
2021/03/29 01:12:10;;;;;;;49.45;26.40;;;;;;;1.87;52.10;100369.71;115056;1198;103105;-75
2021/03/29 01:14:46;;;;;;;54.13;27.00;;;;;;;1.89;51.99;100365.31;114998;1200;103188;-76
2021/03/29 01:17:25;;;;;;;49.25;26.15;;;;;;;1.96;52.19;100374.82;114970;1199;103072;-75
2021/03/29 01:20:02;;;;;;;48.00;23.93;;;;;;;2.00;52.26;100371.26;115064;1200;103140;-75
2021/03/29 01:22:42;;;;;;;49.45;25.30;;;;;;;1.99;52.05;100372.15;114875;1199;103028;-75
2021/03/29 01:25:19;;;;;;;46.15;23.10;;;;;;;2.01;52.33;100375.61;115005;1200;103179;-72
2021/03/29 01:28:03;;;;;;;46.30;24.47;;;;;;;2.04;52.42;100372.06;115481;1199;103107;-74
2021/03/29 01:30:34;;;;;;;45.83;24.93;;;;;;;2.04;52.33;100374.69;115468;1199;103133;-75
2021/03/29 01:33:02;;;;;;;46.57;22.77;;;;;;;2.04;52.58;100374.69;115624;1199;101775;-74
2021/03/29 01:35:37;;;;;;;48.00;25.63;;;;;;;2.02;52.54;100381.75;115651;1200;103145;-75
2021/03/29 01:38:07;;;;;;;42.47;22.27;;;;;;;2.02;52.83;100373.88;115019;1200;103054;-75
2021/03/29 01:40:43;;;;;;;40.70;22.73;;;;;;;2.03;52.63;100375.61;115020;1200;103139;-76
2021/03/29 01:43:17;;;;;;;38.50;18.70;;;;;;;2.02;52.13;100382.59;115032;1199;103047;-75
2021/03/29 01:45:45;;;;;;;42.05;22.10;;;;;;;2.01;52.73;100370.37;114956;1197;103069;-75
2021/03/29 01:48:19;;;;;;;41.30;22.00;;;;;;;2.07;52.75;100370.27;116151;1200;101034;-74
2021/03/29 01:50:55;;;;;;;39.80;20.90;;;;;;;2.11;52.94;100373.70;114984;1199;103062;-74
2021/03/29 01:53:31;;;;;;;39.10;20.90;;;;;;;2.12;53.10;100379.83;115010;1199;103152;-75
2021/03/29 01:55:58;;;;;;;44.90;23.70;;;;;;;2.06;52.81;100378.15;114926;1199;103159;-75
2021/03/29 01:58:30;;;;;;;44.73;23.97;;;;;;;2.02;52.85;100376.50;114947;1200;103092;-75
2021/03/29 02:01:07;;;;;;;48.05;24.75;;;;;;;1.92;52.37;100378.38;115066;1199;103079;-73
2021/03/29 02:03:40;;;;;;;46.03;24.83;;;;;;;1.84;53.02;100380.25;115685;1200;103152;-73
2021/03/29 02:06:08;;;;;;;41.13;21.73;;;;;;;1.78;52.83;100381.23;115207;1198;103036;-73
2021/03/29 02:08:41;;;;;;;47.63;24.90;;;;;;;1.63;52.83;100377.08;115902;1199;103070;-72
2021/03/29 02:11:13;;;;;;;45.20;24.25;;;;;;;1.49;53.16;100380.77;115077;1200;103152;-73
2021/03/29 02:13:44;;;;;;;44.57;23.40;;;;;;;1.39;53.30;100383.55;114972;1200;103053;-73
2021/03/29 02:16:18;;;;;;;44.77;23.47;;;;;;;1.31;53.35;100384.51;115330;1198;103139;-72
2021/03/29 02:18:54;;;;;;;45.23;24.80;;;;;;;1.30;53.83;100381.92;114882;1199;103034;-74
2021/03/29 02:21:25;;;;;;;48.33;26.03;;;;;;;1.29;53.79;100382.81;115457;1199;103063;-74
2021/03/29 02:23:57;;;;;;;44.90;23.90;;;;;;;1.34;53.79;100381.84;115049;1199;103083;-74
2021/03/29 02:26:32;;;;;;;45.37;26.03;;;;;;;1.32;54.06;100381.00;114944;1200;103136;-73
2021/03/29 02:28:59;;;;;;;48.13;25.83;;;;;;;1.30;53.96;100382.77;114938;1200;103012;-75
2021/03/29 02:31:32;;;;;;;53.47;28.37;;;;;;;1.25;54.07;100388.98;114941;1200;103108;-76
2021/03/29 02:34:03;;;;;;;53.53;29.17;;;;;;;1.14;54.37;100384.73;114939;1199;103229;-73
2021/03/29 02:36:35;;;;;;;51.30;27.00;;;;;;;1.09;54.55;100383.07;114967;1199;103194;-75
2021/03/29 02:39:03;;;;;;;54.03;27.13;;;;;;;1.04;54.75;100385.73;115860;1199;103034;-75
2021/03/29 02:41:36;;;;;;;49.40;27.90;;;;;;;1.00;54.25;100382.29;115294;1199;103131;-74
2021/03/29 02:44:06;;;;;;;52.75;28.03;;;;;;;1.01;54.79;100383.17;115031;1199;103060;-74
2021/03/29 02:46:36;;;;;;;51.55;28.15;;;;;;;1.00;54.87;100377.05;114944;1199;103040;-75
2021/03/29 02:49:10;;;;;;;48.90;27.30;;;;;;;1.00;54.70;100382.29;115510;1199;103211;-75
2021/03/29 02:51:45;;;;;;;54.87;30.13;;;;;;;0.99;55.13;100374.46;114931;1200;103581;-75
2021/03/29 02:54:14;;;;;;;52.70;25.75;;;;;;;0.99;54.96;100380.55;114920;1199;103034;-75
2021/03/29 02:56:49;;;;;;;57.15;30.10;;;;;;;0.97;54.87;100373.61;115026;1198;103060;-74
2021/03/29 02:59:20;;;;;;;48.97;26.10;;;;;;;0.93;55.27;100374.53;116060;1199;103083;-73
2021/03/29 03:01:49;;;;;;;46.20;26.03;;;;;;;0.90;55.56;100372.80;114955;1200;103204;-73
2021/03/29 03:04:19;;;;;;;48.85;27.60;;;;;;;0.86;55.61;100371.98;115120;1199;103156;-75
2021/03/29 03:06:51;;;;;;;53.07;26.43;;;;;;;0.84;56.10;100375.48;114908;1200;103072;-76
2021/03/29 03:09:22;;;;;;;49.55;26.45;;;;;;;0.80;55.65;100379.91;114972;1199;103519;-75
2021/03/29 03:11:55;;;;;;;47.77;26.60;;;;;;;0.79;55.59;100378.17;114919;1199;103552;-76
2021/03/29 03:14:23;;;;;;;47.73;25.77;;;;;;;0.79;55.96;100372.93;114981;1199;103108;-74
2021/03/29 03:16:51;;;;;;;45.47;27.60;;;;;;;0.82;56.00;100379.88;114953;1200;103158;-75
2021/03/29 03:19:19;;;;;;;49.57;27.30;;;;;;;0.85;55.86;100377.22;114874;1199;103153;-75
2021/03/29 03:21:51;;;;;;;43.77;23.77;;;;;;;0.91;56.39;100386.78;114858;1200;103477;-73
2021/03/29 03:24:19;;;;;;;37.47;21.33;;;;;;;0.95;56.03;100384.09;114891;1199;103079;-75
2021/03/29 03:26:46;;;;;;;44.60;25.70;;;;;;;1.02;56.08;100377.02;114865;1199;103197;-74
2021/03/29 03:29:14;;;;;;;43.03;23.23;;;;;;;1.08;56.49;100382.19;114953;1199;103114;-74
2021/03/29 03:31:43;;;;;;;45.07;25.93;;;;;;;1.14;56.38;100383.88;114902;1200;103079;-74
2021/03/29 03:34:10;;;;;;;48.23;25.57;;;;;;;1.19;56.39;100380.30;114982;1199;103235;-74
2021/03/29 03:36:42;;;;;;;41.43;21.13;;;;;;;1.22;56.34;100374.17;115031;1199;103073;-75
2021/03/29 03:39:09;;;;;;;45.50;24.25;;;;;;;1.23;56.38;100386.36;114988;1200;103037;-73
2021/03/29 03:41:39;;;;;;;43.60;23.05;;;;;;;1.28;56.44;100389.79;114905;1199;103142;-76
2021/03/29 03:44:14;;;;;;;40.57;21.70;;;;;;;1.29;56.38;100390.67;114908;1199;103070;-74
2021/03/29 03:46:48;;;;;;;42.35;23.30;;;;;;;1.31;56.69;100388.91;115023;1200;103226;-74
2021/03/29 03:49:28;;;;;;;42.47;22.77;;;;;;;1.34;56.61;100386.24;114987;1199;103628;-74
2021/03/29 03:51:56;;;;;;;39.40;22.00;;;;;;;1.37;56.38;100385.31;114976;1200;103057;-73
2021/03/29 03:54:23;;;;;;;45.20;22.50;;;;;;;1.40;56.81;100395.77;115357;1198;103109;-74
2021/03/29 03:56:55;;;;;;;43.40;22.00;;;;;;;1.43;56.64;100395.73;116209;1199;103072;-73
2021/03/29 03:59:23;;;;;;;38.35;19.50;;;;;;;1.48;56.88;100396.53;114829;1200;103060;-73
2021/03/29 04:02:06;;;;;;;37.53;19.53;;;;;;;1.47;56.49;100398.27;114933;1199;103018;-73
2021/03/29 04:04:38;;;;;;;39.35;20.75;;;;;;;1.48;57.01;100394.77;115035;1199;103108;-74
2021/03/29 04:07:06;;;;;;;39.93;20.90;;;;;;;1.52;56.80;100403.47;115002;1199;103115;-74
2021/03/29 04:09:42;;;;;;;37.15;19.15;;;;;;;1.54;56.85;100401.70;114953;1200;103056;-74
2021/03/29 04:12:11;;;;;;;42.60;21.75;;;;;;;1.56;56.80;100404.28;114972;1199;103178;-73
2021/03/29 04:14:40;;;;;;;40.43;20.57;;;;;;;1.60;56.89;100408.60;114975;1199;103129;-72
2021/03/29 04:17:07;;;;;;;38.97;19.93;;;;;;;1.61;57.28;100400.73;115326;1164;103034;-73
2021/03/29 04:19:39;;;;;;;36.00;21.27;;;;;;;1.66;56.79;100402.39;115178;1200;103066;-73
2021/03/29 04:22:06;;;;;;;37.40;20.10;;;;;;;1.71;57.49;100411.06;115110;1200;103072;-71
2021/03/29 04:24:33;;;;;;;34.87;19.07;;;;;;;1.76;57.41;100401.38;115082;1200;103040;-70
2021/03/29 04:27:00;;;;;;;34.55;18.00;;;;;;;1.79;57.03;100403.95;115176;1200;103063;-72
2021/03/29 04:29:27;;;;;;;39.50;19.57;;;;;;;1.80;56.84;100404.84;115172;1198;103137;-73
2021/03/29 04:31:54;;;;;;;35.87;18.90;;;;;;;1.83;57.02;100410.03;115551;1200;103153;-74
2021/03/29 04:34:21;;;;;;;29.55;17.20;;;;;;;1.84;57.08;100406.49;114970;1200;103213;-73
2021/03/29 04:36:48;;;;;;;32.15;17.80;;;;;;;1.88;57.04;100416.05;115341;1199;103070;-73
2021/03/29 04:39:15;;;;;;;31.03;17.03;;;;;;;1.89;57.19;100410.80;115058;1199;103187;-70
2021/03/29 04:41:42;;;;;;;32.13;17.20;;;;;;;1.92;57.24;100416.00;114919;1199;103141;-74
2021/03/29 04:44:09;;;;;;;36.80;17.70;;;;;;;1.96;57.29;100408.09;115051;1199;103040;-72
2021/03/29 04:46:37;;;;;;;33.60;17.75;;;;;;;2.03;57.31;100417.60;114978;1199;103533;-74
2021/03/29 04:49:06;;;;;;;33.33;18.20;;;;;;;2.08;57.39;100424.50;114970;1199;103142;-71
2021/03/29 04:51:33;;;;;;;31.40;17.20;;;;;;;2.13;57.13;100416.54;114925;1198;103188;-72
2021/03/29 04:54:00;;;;;;;32.30;17.35;;;;;;;2.15;57.13;100406.88;115014;1199;103149;-73
2021/03/29 04:56:27;;;;;;;41.65;19.20;;;;;;;2.17;57.71;100402.47;114953;1200;103142;-72
2021/03/29 04:58:57;;;;;;;33.83;17.67;;;;;;;2.21;57.28;100406.78;114977;1198;103085;-73
2021/03/29 05:01:24;;;;;;;31.05;16.80;;;;;;;2.29;57.50;100409.27;114969;1199;103139;-73
2021/03/29 05:03:51;;;;;;;28.90;15.60;;;;;;;2.34;57.66;100407.44;115007;1200;103037;-73
2021/03/29 05:06:18;;;;;;;31.00;16.08;;;;;;;2.40;57.59;100401.23;114976;1200;103168;-73
2021/03/29 05:08:45;;;;;;;40.63;19.50;;;;;;;2.37;57.94;100406.53;115046;1199;103063;-74
2021/03/29 05:11:12;;;;;;;32.58;18.08;;;;;;;2.37;57.38;100407.38;115142;1200;103033;-73
2021/03/29 05:13:41;;;;;;;38.57;19.37;;;;;;;2.41;58.03;100405.59;115017;1200;103475;-73
2021/03/29 05:16:08;;;;;;;34.80;18.93;;;;;;;2.42;57.78;100412.58;114892;1200;103143;-72
2021/03/29 05:18:35;;;;;;;29.83;16.07;;;;;;;2.45;57.70;100407.23;114977;1199;103079;-73
2021/03/29 05:21:02;;;;;;;35.00;17.70;;;;;;;2.49;57.72;100408.07;114907;1199;103038;-72
2021/03/29 05:23:29;;;;;;;35.97;17.97;;;;;;;2.51;57.79;100412.39;114983;1200;103139;-73
2021/03/29 05:25:56;;;;;;;33.33;17.05;;;;;;;2.56;57.59;100420.20;115050;1199;103198;-73
2021/03/29 05:28:29;;;;;;;36.83;18.13;;;;;;;2.61;57.46;100426.25;114965;1199;103580;-71
2021/03/29 05:30:55;;;;;;;36.37;18.87;;;;;;;2.66;58.12;100429.63;114920;1199;103076;-72
2021/03/29 05:33:22;;;;;;;35.10;18.33;;;;;;;2.72;57.76;100433.05;114907;1199;103149;-73
2021/03/29 05:35:51;;;;;;;31.50;17.70;;;;;;;2.78;57.49;100430.30;114975;1199;103172;-72
2021/03/29 05:38:18;;;;;;;31.50;15.57;;;;;;;2.87;58.20;100434.52;114976;1199;103146;-71
2021/03/29 05:40:45;;;;;;;34.60;18.10;;;;;;;2.96;58.22;100427.34;115068;1199;103484;-71
2021/03/29 05:43:12;;;;;;;34.53;16.80;;;;;;;3.04;57.92;100435.06;115058;1199;103243;-71
2021/03/29 05:45:46;;;;;;;33.15;18.05;;;;;;;3.13;58.43;100431.38;114955;1200;103133;-72
2021/03/29 05:48:13;;;;;;;37.60;17.80;;;;;;;3.21;58.24;100425.98;115024;1200;103296;-73
2021/03/29 05:50:40;;;;;;;30.77;15.93;;;;;;;3.31;58.29;100434.55;114970;1199;103034;-73
2021/03/29 05:53:07;;;;;;;32.33;15.47;;;;;;;3.35;58.32;100426.55;115027;1199;103032;-74
2021/03/29 05:55:37;;;;;;;30.35;14.75;;;;;;;3.43;57.83;100429.89;114943;1200;103069;-75
2021/03/29 05:58:19;;;;;;;34.40;16.13;;;;;;;3.49;58.12;100426.25;115044;1200;103134;-74
2021/03/29 06:00:46;;;;;;;31.87;15.27;;;;;;;3.57;58.29;100429.58;115000;1200;103056;-74
2021/03/29 06:03:24;;;;;;;30.37;15.17;;;;;;;3.66;57.91;100436.43;114951;1199;103066;-72
2021/03/29 06:05:58;;;;;;;32.67;14.60;;;;;;;3.77;58.36;100441.45;114889;1198;103156;-73
2021/03/29 06:08:27;;;;;;;30.80;15.25;;;;;;;3.88;57.84;100442.05;114794;1200;103140;-72
2021/03/29 06:10:56;;;;;;;30.43;16.00;;;;;;;4.00;57.95;100445.30;114983;1199;103082;-73
2021/03/29 06:13:32;;;;;;;33.60;18.15;;;;;;;4.13;57.92;100445.88;114888;1199;103188;-73
2021/03/29 06:16:08;;;;;;;31.40;16.77;;;;;;;4.27;57.89;100435.88;114850;1200;103187;-76
2021/03/29 06:18:37;;;;;;;37.55;17.30;;;;;;;4.39;58.43;100439.12;114853;1200;103089;-71
2021/03/29 06:21:11;;;;;;;32.50;16.50;;;;;;;4.54;58.25;100435.22;114841;1200;103146;-71
2021/03/29 06:23:43;;;;;;;36.97;16.57;;;;;;;4.69;57.96;100442.70;114911;1200;103525;-73
2021/03/29 06:26:26;;;;;;;35.50;16.10;;;;;;;4.81;58.34;100438.02;114825;1199;103088;-72
2021/03/29 06:28:53;;;;;;;32.67;15.47;;;;;;;4.92;57.81;100441.24;114829;1198;103139;-73
2021/03/29 06:31:34;;;;;;;29.80;15.13;;;;;;;4.99;58.38;100436.66;114821;1200;103040;-74
2021/03/29 06:34:03;;;;;;;31.65;14.15;;;;;;;5.08;58.37;100438.20;114924;1200;103149;-72
2021/03/29 06:36:33;;;;;;;30.05;14.65;;;;;;;5.18;58.07;100437.89;114818;1200;103081;-72
2021/03/29 06:39:18;;;;;;;30.03;13.97;;;;;;;5.29;58.23;100444.63;114832;1200;103204;-73
2021/03/29 06:41:55;;;;;;;26.80;13.45;;;;;;;5.38;58.36;100433.79;114969;1200;103050;-75
2021/03/29 06:44:33;;;;;;;28.33;12.73;;;;;;;5.49;58.14;100441.41;114884;1199;103165;-74
2021/03/29 06:47:33;;;;;;;29.10;13.15;;;;;;;5.61;58.14;100440.17;114941;1198;103072;-77
2021/03/29 06:50:00;;;;;;;26.80;11.80;;;;;;;5.78;58.15;100444.94;114773;1199;103070;-76
2021/03/29 06:52:32;;;;;;;26.73;12.07;;;;;;;5.87;58.15;100449.95;114883;1199;103069;-77
2021/03/29 06:55:19;;;;;;;24.13;11.00;;;;;;;6.00;57.94;100445.17;114891;1199;103140;-75
2021/03/29 06:58:01;;;;;;;26.95;11.80;;;;;;;6.09;58.14;100442.23;114926;1200;103043;-75
2021/03/29 07:00:33;;;;;;;26.50;12.67;;;;;;;6.13;58.20;100435.06;114877;1199;103066;-78
2021/03/29 07:03:02;;;;;;;29.87;12.67;;;;;;;6.15;58.05;100443.81;114941;1199;103130;-76
2021/03/29 07:05:30;;;;;;;28.05;13.70;;;;;;;6.20;58.13;100451.58;114851;1199;103233;-76
2021/03/29 07:08:00;;;;;;;26.00;12.13;;;;;;;6.24;58.13;100450.56;114744;1200;102990;-77
2021/03/29 07:10:28;;;;;;;28.55;13.20;;;;;;;6.26;57.82;100448.73;115385;1198;103069;-77
2021/03/29 07:12:56;;;;;;;30.93;14.07;;;;;;;6.34;58.01;100437.91;114810;1200;103088;-77
2021/03/29 07:15:24;;;;;;;27.77;12.73;;;;;;;6.44;58.33;100443.77;114954;1199;103089;-77
2021/03/29 07:17:52;;;;;;;31.50;15.30;;;;;;;6.50;57.92;100448.86;114956;1200;103035;-77
2021/03/29 07:20:25;;;;;;;30.57;14.83;;;;;;;6.58;57.85;100430.92;114915;1200;103621;-77
2021/03/29 07:22:54;;;;;;;29.40;13.13;;;;;;;6.69;58.13;100430.58;114909;1200;103086;-76
2021/03/29 07:25:30;;;;;;;28.57;13.73;;;;;;;6.85;57.88;100433.55;114977;1198;103146;-77
2021/03/29 07:28:00;;;;;;;31.20;13.37;;;;;;;7.00;58.03;100429.48;115119;1198;103133;-77
2021/03/29 07:30:50;;;;;;;31.37;14.07;;;;;;;7.14;57.89;100428.98;115100;1199;103168;-78
2021/03/29 07:33:19;;;;;;;25.80;11.30;;;;;;;7.37;57.92;100433.42;115066;1199;103040;-78
2021/03/29 07:35:52;;;;;;;24.40;10.90;;;;;;;7.64;57.82;100435.08;115140;1199;103076;-77
2021/03/29 07:38:39;;;;;;;25.93;10.67;;;;;;;8.04;57.57;100431.70;114917;1199;103082;-77
2021/03/29 07:41:14;;;;;;;29.00;11.13;;;;;;;8.75;57.41;100433.23;114930;1199;103104;-78
2021/03/29 07:44:18;;;;;;;27.93;13.30;;;;;;;9.49;56.92;100431.73;115084;1199;103050;-74
2021/03/29 07:46:56;;;;;;;24.70;12.10;;;;;;;10.14;57.13;100433.11;115083;1199;103033;-76
2021/03/29 07:49:45;;;;;;;25.90;11.60;;;;;;;10.74;56.99;100434.57;115057;1200;103040;-77
2021/03/29 07:52:29;;;;;;;28.67;11.40;;;;;;;11.51;56.59;100432.30;115072;1199;103108;-77
2021/03/29 07:54:58;;;;;;;23.75;10.65;;;;;;;12.29;56.63;100420.84;115070;1199;103034;-75
2021/03/29 07:57:58;;;;;;;24.90;11.00;;;;;;;13.05;56.50;100424.35;115125;1199;103087;-76
2021/03/29 08:00:25;;;;;;;23.17;9.50;;;;;;;13.93;56.01;100422.47;114891;1199;103034;-77
2021/03/29 08:03:21;;;;;;;25.18;10.43;;;;;;;14.63;55.93;100425.89;114875;1200;103101;-75
2021/03/29 08:05:50;;;;;;;23.23;10.33;;;;;;;15.59;56.01;100409.38;115012;1199;103140;-76
2021/03/29 08:08:26;;;;;;;24.43;10.53;;;;;;;16.26;55.91;100415.27;115015;1199;103145;-74
2021/03/29 08:10:58;;;;;;;31.40;16.10;;;;;;;17.06;55.85;100413.70;114986;1198;103079;-77
2021/03/29 08:13:36;;;;;;;26.03;11.40;;;;;;;17.73;55.67;100407.54;114843;1200;103127;-76
2021/03/29 08:16:06;;;;;;;24.40;11.23;;;;;;;17.99;55.18;100416.20;114498;1198;103529;-81
2021/03/29 08:19:25;;;;;;;26.67;12.43;;;;;;;18.49;55.40;100409.41;114803;1199;103163;-79
2021/03/29 08:21:58;;;;;;;24.37;11.20;;;;;;;19.18;54.85;100411.53;115033;1199;103153;-77
2021/03/29 08:24:29;;;;;;;26.15;11.63;;;;;;;19.85;54.78;100402.95;114884;1199;103143;-76
2021/03/29 08:27:27;;;;;;;22.23;10.17;;;;;;;19.97;54.80;100408.27;114977;1200;103068;-79
2021/03/29 09:39:30;;;;;;;14.25;4.80;;;;;;;15.97;50.39;100430.86;119402;1169;102693;-81
2021/03/29 09:42:01;;;;;;;18.85;6.08;;;;;;;15.88;50.25;100424.35;114300;1206;103086;-78
2021/03/29 09:44:30;;;;;;;18.70;6.70;;;;;;;15.77;49.87;100425.11;114379;1206;103075;-79
2021/03/29 09:47:00;;;;;;;18.30;6.10;;;;;;;15.50;49.91;100425.28;114348;1206;103073;-78
2021/03/29 09:49:30;;;;;;;19.27;5.87;;;;;;;15.33;49.81;100422.84;114429;1205;103059;-77
2021/03/29 09:52:08;;;;;;;17.60;6.23;;;;;;;15.19;49.71;100422.95;114356;1206;103641;-77
2021/03/29 09:54:38;;;;;;;16.60;5.70;;;;;;;15.00;49.58;100426.07;114323;1206;103178;-77
2021/03/29 09:57:14;;;;;;;18.40;6.30;;;;;;;14.95;49.61;100422.84;114358;1206;103162;-75
2021/03/29 09:59:43;;;;;;;18.67;6.17;;;;;;;14.92;49.65;100423.06;114390;1206;103101;-74
2021/03/29 10:02:14;;;;;;;18.35;5.55;;;;;;;14.95;49.27;100423.72;114356;1206;103092;-76
2021/03/29 10:04:44;;;;;;;18.80;6.60;;;;;;;14.94;49.15;100411.29;114377;1206;102049;-75
2021/03/29 10:07:16;;;;;;;21.50;7.05;;;;;;;14.93;49.15;100411.38;114269;1205;103149;-75
2021/03/29 10:09:47;;;;;;;21.20;7.00;;;;;;;14.94;48.97;100419.33;114331;1205;103124;-80
2021/03/29 10:12:26;;;;;;;16.70;5.60;;;;;;;14.83;48.79;100411.17;114363;1206;103095;-77
2021/03/29 10:15:11;;;;;;;15.90;5.75;;;;;;;14.60;48.58;100405.55;114375;1206;103165;-76
2021/03/29 10:17:39;;;;;;;16.90;6.30;;;;;;;14.41;48.56;100409.47;114341;1206;103088;-77
2021/03/29 10:20:09;;;;;;;20.57;6.73;;;;;;;14.35;48.55;100412.55;114335;1206;103064;-77
2021/03/29 10:22:37;;;;;;;20.10;7.40;;;;;;;14.26;48.38;100410.52;114344;1206;103072;-77
2021/03/29 10:25:18;;;;;;;23.20;7.85;;;;;;;14.23;48.39;100408.05;114194;1206;103188;-76
2021/03/29 10:27:49;;;;;;;19.90;6.53;;;;;;;14.16;48.16;100412.08;114245;1205;103083;-77
2021/03/29 10:30:19;;;;;;;20.10;6.50;;;;;;;14.02;47.89;100418.35;114319;1206;103117;-78
2021/03/29 10:32:58;;;;;;;16.60;6.05;;;;;;;13.75;47.76;100424.52;114279;1206;103187;-77
2021/03/29 10:35:41;;;;;;;20.80;7.15;;;;;;;13.63;47.78;100421.70;114339;1206;103165;-77
2021/03/29 10:38:08;;;;;;;18.65;5.75;;;;;;;13.57;47.97;100418.53;114442;1206;103162;-77
2021/03/29 10:40:35;;;;;;;19.70;6.30;;;;;;;13.54;47.62;100419.60;114429;1206;103047;-78
2021/03/29 10:43:02;;;;;;;17.10;5.80;;;;;;;13.47;47.70;100418.27;114437;1206;103261;-77
2021/03/29 10:45:29;;;;;;;18.00;5.70;;;;;;;13.37;47.38;100416.14;114398;1206;103152;-77
2021/03/29 10:47:56;;;;;;;18.25;6.05;;;;;;;13.23;47.51;100417.02;114470;1206;103197;-68
2021/03/29 10:50:24;;;;;;;18.73;6.53;;;;;;;13.23;47.57;100410.82;114455;1205;103054;-70
2021/03/29 10:52:52;;;;;;;19.55;6.35;;;;;;;13.29;47.45;100407.73;114496;1206;103063;-78
2021/03/29 10:55:20;;;;;;;16.90;5.40;;;;;;;13.31;47.53;100410.33;114441;1206;103143;-77
2021/03/29 10:57:47;;;;;;;18.90;6.00;;;;;;;13.34;47.46;100404.80;114437;1205;103775;-77
2021/03/29 11:00:15;;;;;;;19.70;5.50;;;;;;;13.36;47.29;100401.06;114463;1206;103073;-79
2021/03/29 11:02:43;;;;;;;18.47;5.90;;;;;;;13.40;47.02;100391.05;114452;1206;103145;-78
2021/03/29 11:05:11;;;;;;;15.35;5.55;;;;;;;13.44;46.97;100389.94;114343;1205;103124;-79
2021/03/29 11:07:38;;;;;;;21.85;6.00;;;;;;;13.51;47.09;100387.72;114411;1206;103099;-81
2021/03/29 11:10:07;;;;;;;16.83;5.53;;;;;;;13.60;47.06;100384.47;114360;1206;103181;-81
2021/03/29 11:12:33;;;;;;;16.70;5.40;;;;;;;13.72;47.15;100385.48;114402;1206;103152;-79
2021/03/29 11:15:01;;;;;;;14.05;4.90;;;;;;;13.88;47.25;100377.31;114352;1206;103133;-80
2021/03/29 11:17:33;;;;;;;14.95;5.10;;;;;;;13.94;46.93;100379.59;114389;1206;103153;-78
2021/03/29 11:20:00;;;;;;;12.40;5.05;;;;;;;13.96;47.00;100374.99;114412;1205;103281;-78
2021/03/29 11:22:28;;;;;;;19.05;5.15;;;;;;;14.05;47.07;100384.22;114358;1206;103236;-78
2021/03/29 11:24:55;;;;;;;15.60;4.60;;;;;;;14.12;47.09;100376.63;114366;1206;103079;-79
2021/03/29 11:27:22;;;;;;;16.90;5.60;;;;;;;14.12;46.87;100384.66;114349;1206;103101;-79
2021/03/29 11:29:50;;;;;;;15.80;5.30;;;;;;;14.06;46.61;100377.06;114367;1204;103092;-78
2021/03/29 11:32:18;;;;;;;14.15;5.05;;;;;;;13.91;46.77;100377.11;114331;1206;103175;-78
2021/03/29 11:34:45;;;;;;;15.80;5.00;;;;;;;13.85;46.62;100377.51;114445;1206;103098;-80
2021/03/29 11:37:12;;;;;;;16.50;5.10;;;;;;;13.77;46.35;100388.72;114341;1206;103105;-78
2021/03/29 11:39:39;;;;;;;15.40;5.30;;;;;;;13.63;46.50;100384.27;114431;1206;103078;-78
2021/03/29 11:42:06;;;;;;;16.80;4.70;;;;;;;13.54;46.54;100382.19;114445;1206;103124;-79
2021/03/29 11:44:36;;;;;;;18.50;5.65;;;;;;;13.49;46.49;100381.61;114392;1206;103211;-78
2021/03/29 11:47:04;;;;;;;16.80;4.60;;;;;;;13.42;46.36;100388.30;114407;1204;103200;-79
2021/03/29 11:49:31;;;;;;;15.70;5.40;;;;;;;13.38;46.24;100398.31;114452;1206;103168;-79
2021/03/29 11:51:59;;;;;;;13.30;4.85;;;;;;;13.33;46.26;100387.05;114449;1206;103169;-80
2021/03/29 11:54:26;;;;;;;14.80;5.70;;;;;;;13.25;46.21;100385.71;114445;1206;103102;-78
2021/03/29 11:56:54;;;;;;;12.10;4.80;;;;;;;13.15;46.03;100381.05;114421;1206;103200;-80
2021/03/29 11:59:25;;;;;;;16.40;5.20;;;;;;;13.09;46.10;100371.59;114374;1206;103079;-79
2021/03/29 12:02:17;;;;;;;17.90;5.40;;;;;;;13.06;46.07;100369.98;114440;1206;103121;-83
2021/03/29 12:05:23;;;;;;;18.27;5.73;;;;;;;13.07;46.14;100371.70;114386;1206;103050;-82
2021/03/29 12:13:34;;;;;;;16.75;5.15;;;;;;;13.44;45.97;100379.25;114349;1206;103054;-82
2021/03/29 12:16:05;;;;;;;13.60;4.70;;;;;;;13.50;46.07;100370.81;114403;1206;103194;-82
2021/03/29 12:21:17;;;;;;;16.50;5.80;;;;;;;13.54;46.13;100358.97;114396;1206;103076;-81
2021/03/29 12:23:50;;;;;;;15.20;5.05;;;;;;;13.57;45.97;100367.75;114310;1206;103112;-81
2021/03/29 12:26:27;;;;;;;15.07;4.63;;;;;;;13.54;46.00;100358.13;114377;1205;103049;-83
2021/03/29 12:28:59;;;;;;;17.70;4.70;;;;;;;13.51;46.07;100356.48;114447;1206;103130;-83
2021/03/29 12:31:26;;;;;;;13.70;4.55;;;;;;;13.50;45.93;100359.27;114412;1206;103053;-82
2021/03/29 12:33:57;;;;;;;13.95;5.00;;;;;;;13.48;46.15;100356.69;114419;1206;103155;-83
2021/03/29 12:36:31;;;;;;;14.00;4.50;;;;;;;13.49;45.94;100365.58;114392;1206;103227;-82
2021/03/29 12:39:38;;;;;;;11.55;4.10;;;;;;;13.45;45.90;100353.36;114315;1206;103126;-83